createdAt,value
2017-12-31T16:34:29.491Z,4.60
2017-12-31T16:35:30.504Z,5.20
2017-12-31T16:37:24.095Z,5.80
2017-12-31T16:38:24.102Z,5.40
2017-12-31T16:40:18.276Z,5.20
2017-12-31T16:41:14.959Z,6.10
2017-12-31T16:43:11.178Z,6.80
2017-12-31T16:44:11.185Z,6.30
2017-12-31T16:46:03.855Z,5.70
2017-12-31T16:47:04.816Z,6.40
2017-12-31T16:48:57.402Z,6.40
2017-12-31T16:49:58.470Z,6.50
2017-12-31T16:51:50.964Z,5.60
2017-12-31T16:52:51.857Z,6.50
2017-12-31T16:54:45.519Z,5.90
2017-12-31T16:55:44.576Z,6.90
2017-12-31T16:57:39.585Z,7.30
2017-12-31T16:58:36.325Z,6.20
2017-12-31T17:00:32.520Z,4.90
2017-12-31T17:01:32.571Z,5.60
2017-12-31T17:03:25.227Z,5.00
2017-12-31T17:04:26.129Z,4.90
2017-12-31T17:06:19.624Z,4.70
2017-12-31T17:07:19.680Z,5.90
2017-12-31T17:09:12.338Z,5.60
2017-12-31T17:11:26.650Z,8.10
2017-12-31T17:12:26.688Z,8.80
2017-12-31T17:14:20.830Z,5.40
2017-12-31T17:15:20.211Z,5.70
2017-12-31T17:17:13.810Z,5.30
2017-12-31T17:18:13.771Z,4.30
2017-12-31T17:20:06.308Z,4.90
2017-12-31T17:21:07.373Z,4.80
2017-12-31T17:23:00.966Z,7.50
2017-12-31T17:24:00.893Z,5.60
2017-12-31T17:25:51.673Z,6.80
2017-12-31T17:26:54.493Z,7.10
2017-12-31T17:28:48.012Z,6.20
2017-12-31T17:29:48.088Z,5.20
2017-12-31T17:31:40.570Z,6.60
2017-12-31T17:32:41.582Z,5.60
2017-12-31T17:34:35.068Z,6.10
2017-12-31T17:35:35.141Z,5.40
2017-12-31T17:37:28.433Z,5.70
2017-12-31T17:39:42.145Z,5.50
2017-12-31T17:40:42.125Z,4.90
2017-12-31T17:42:34.763Z,5.50
2017-12-31T17:43:35.269Z,5.40
2017-12-31T17:45:28.353Z,6.50
2017-12-31T17:46:29.239Z,6.90
2017-12-31T17:48:21.869Z,7.10
2017-12-31T17:49:22.790Z,6.00
2017-12-31T17:51:15.763Z,5.30
2017-12-31T17:52:16.365Z,4.80
2017-12-31T17:54:09.938Z,6.10
2017-12-31T17:55:09.914Z,7.10
2017-12-31T17:57:02.589Z,5.70
2017-12-31T17:58:03.478Z,4.70
2017-12-31T17:59:56.197Z,5.00
2017-12-31T18:00:54.387Z,6.00
2017-12-31T18:02:49.516Z,6.30
2017-12-31T18:03:50.628Z,6.90
2017-12-31T18:05:43.291Z,5.40
2017-12-31T18:06:44.171Z,5.50
2017-12-31T18:08:37.726Z,8.60
2017-12-31T18:09:37.731Z,6.20
2017-12-31T18:11:30.926Z,4.70
2017-12-31T18:12:31.322Z,7.50
2017-12-31T18:14:21.986Z,8.00
2017-12-31T18:15:24.906Z,5.50
2017-12-31T18:17:17.534Z,9.10
2017-12-31T18:18:15.740Z,6.00
2017-12-31T18:20:10.843Z,7.60
2017-12-31T18:21:11.970Z,5.80
2017-12-31T18:23:05.588Z,6.30
2017-12-31T18:24:05.565Z,6.20
2017-12-31T18:25:58.240Z,6.10
2017-12-31T18:26:59.096Z,7.30
2017-12-31T18:28:52.663Z,5.10
2017-12-31T18:29:52.688Z,5.50
2017-12-31T18:31:45.295Z,6.10
2017-12-31T18:32:46.206Z,5.90
2017-12-31T18:34:39.818Z,6.40
2017-12-31T18:35:37.111Z,5.60
2017-12-31T18:37:32.440Z,6.90
2017-12-31T18:38:33.336Z,7.00
2017-12-31T18:40:26.898Z,6.50
2017-12-31T18:41:26.927Z,7.30
2017-12-31T18:43:18.173Z,7.30
2017-12-31T18:44:20.462Z,7.90
2017-12-31T18:46:14.004Z,7.10
2017-12-31T18:47:14.021Z,6.80
2017-12-31T18:49:06.701Z,8.60
2017-12-31T18:50:07.585Z,8.90
2017-12-31T18:52:01.162Z,9.40
2017-12-31T18:53:01.194Z,7.70
2017-12-31T18:54:53.543Z,9.20
2017-12-31T18:55:54.696Z,9.40
2017-12-31T18:57:48.145Z,10.00
2017-12-31T18:58:48.292Z,7.80
2017-12-31T19:00:39.025Z,7.60
2017-12-31T19:01:41.861Z,6.60
2017-12-31T19:03:35.387Z,8.00
2017-12-31T19:04:35.428Z,7.90
2017-12-31T19:06:28.155Z,8.50
2017-12-31T19:07:28.973Z,8.50
2017-12-31T19:09:22.548Z,8.00
2017-12-31T19:10:22.512Z,7.70
2017-12-31T19:12:15.164Z,9.70
2017-12-31T19:13:16.023Z,12.20
2017-12-31T19:15:09.702Z,9.60
2017-12-31T19:16:09.664Z,9.10
2017-12-31T19:18:03.846Z,11.50
2017-12-31T19:19:03.186Z,10.10
2017-12-31T19:20:56.761Z,15.10
2017-12-31T19:21:56.817Z,19.10
2017-12-31T19:23:49.477Z,24.90
2017-12-31T19:24:50.374Z,19.10
2017-12-31T19:26:43.861Z,10.00
2017-12-31T19:27:43.920Z,17.60
2017-12-31T19:29:37.818Z,10.90
2017-12-31T19:30:37.473Z,9.90
2017-12-31T19:32:31.040Z,9.30
2017-12-31T19:33:31.035Z,8.90
2017-12-31T19:35:22.318Z,7.80
2017-12-31T19:36:24.605Z,8.60
2017-12-31T19:38:18.152Z,6.90
2017-12-31T19:39:18.119Z,6.40
2017-12-31T19:41:10.767Z,6.20
2017-12-31T19:42:11.683Z,5.80
2017-12-31T19:44:05.277Z,6.70
2017-12-31T19:45:05.274Z,5.80
2017-12-31T19:46:57.866Z,6.30
2017-12-31T19:47:58.819Z,5.90
2017-12-31T19:49:51.539Z,5.90
2017-12-31T19:50:52.396Z,8.60
2017-12-31T19:52:44.043Z,7.40
2017-12-31T19:53:45.921Z,9.20
2017-12-31T19:55:40.133Z,4.50
2017-12-31T19:56:39.500Z,4.80
2017-12-31T19:58:33.055Z,3.70
2017-12-31T19:59:33.056Z,4.20
2017-12-31T20:01:25.686Z,5.10
2017-12-31T20:02:26.615Z,6.40
2017-12-31T20:04:20.278Z,4.60
2017-12-31T20:05:20.156Z,5.10
2017-12-31T20:07:14.320Z,4.30
2017-12-31T20:08:13.723Z,4.70
2017-12-31T20:10:07.294Z,5.90
2017-12-31T20:11:07.380Z,4.90
2017-12-31T20:12:59.991Z,4.30
2017-12-31T20:14:00.882Z,3.50
2017-12-31T20:15:53.257Z,4.20
2017-12-31T20:16:54.459Z,5.00
2017-12-31T20:18:47.080Z,3.50
2017-12-31T20:19:48.053Z,3.30
2017-12-31T20:21:41.486Z,2.90
2017-12-31T20:22:41.554Z,2.80
2017-12-31T20:24:33.436Z,2.90
2017-12-31T20:25:35.269Z,4.10
2017-12-31T20:27:28.056Z,2.90
2017-12-31T20:28:28.720Z,3.20
2017-12-31T20:30:21.170Z,3.40
2017-12-31T20:31:22.229Z,3.50
2017-12-31T20:33:15.817Z,4.20
2017-12-31T20:34:15.791Z,4.50
2017-12-31T20:36:08.468Z,3.60
2017-12-31T20:37:09.346Z,3.00
2017-12-31T20:39:02.949Z,3.60
2017-12-31T20:40:02.930Z,4.60
2017-12-31T20:41:56.238Z,2.60
2017-12-31T20:42:56.474Z,3.30
2017-12-31T20:44:47.189Z,2.90
2017-12-31T20:45:50.039Z,2.60
2017-12-31T20:47:42.745Z,3.40
2017-12-31T20:48:43.743Z,2.80
2017-12-31T20:50:37.217Z,4.40
2017-12-31T20:51:37.161Z,2.80
2017-12-31T20:53:31.631Z,2.60
2017-12-31T20:54:30.718Z,3.50
2017-12-31T20:56:23.198Z,3.30
2017-12-31T20:57:24.313Z,3.00
2017-12-31T20:59:16.994Z,3.30
2017-12-31T21:00:17.830Z,3.10
2017-12-31T21:02:10.303Z,3.60
2017-12-31T21:03:10.579Z,4.00
2017-12-31T21:05:05.018Z,3.70
2017-12-31T21:06:04.988Z,3.90
2017-12-31T21:07:57.650Z,3.40
2017-12-31T21:08:58.563Z,3.50
2017-12-31T21:10:52.175Z,3.90
2017-12-31T21:11:52.087Z,3.30
2017-12-31T21:13:42.838Z,3.10
2017-12-31T21:14:46.588Z,3.10
2017-12-31T21:16:39.252Z,3.10
2017-12-31T21:17:39.205Z,2.60
2017-12-31T21:19:30.775Z,3.30
2017-12-31T21:20:32.795Z,2.40
2017-12-31T21:22:26.385Z,2.40
2017-12-31T21:23:26.348Z,2.10
2017-12-31T21:25:18.796Z,2.60
2017-12-31T21:26:19.975Z,3.10
2017-12-31T21:28:13.450Z,2.40
2017-12-31T21:29:13.449Z,8.00
2017-12-31T21:31:06.142Z,2.60
2017-12-31T21:32:07.005Z,2.60
2017-12-31T21:34:00.576Z,3.00
2017-12-31T21:35:00.576Z,3.40
2017-12-31T21:36:53.336Z,3.50
2017-12-31T21:37:54.143Z,3.90
2017-12-31T21:39:47.729Z,3.60
2017-12-31T21:40:47.698Z,2.90
2017-12-31T21:42:40.375Z,3.40
2017-12-31T21:43:41.240Z,4.20
2017-12-31T21:45:33.963Z,2.40
2017-12-31T21:46:34.819Z,2.90
2017-12-31T21:48:28.374Z,2.90
2017-12-31T21:49:28.421Z,2.50
2017-12-31T21:51:20.838Z,2.50
2017-12-31T21:52:21.918Z,2.60
2017-12-31T21:54:12.634Z,3.60
2017-12-31T21:55:15.513Z,5.10
2017-12-31T21:57:08.129Z,3.20
2017-12-31T21:58:09.091Z,4.40
2017-12-31T22:00:02.603Z,3.90
2017-12-31T22:01:02.600Z,4.00
2017-12-31T22:02:56.825Z,3.50
2017-12-31T22:03:56.169Z,3.30
2017-12-31T22:05:49.709Z,3.70
2017-12-31T22:06:49.746Z,3.00
2017-12-31T22:08:42.407Z,3.30
2017-12-31T22:09:43.328Z,3.40
2017-12-31T22:11:34.197Z,4.90
2017-12-31T22:12:36.884Z,4.10
2017-12-31T22:14:29.526Z,3.70
2017-12-31T22:15:30.566Z,7.40
2017-12-31T22:17:24.026Z,4.10
2017-12-31T22:18:24.011Z,3.80
2017-12-31T22:20:15.373Z,4.50
2017-12-31T22:21:17.552Z,4.10
2017-12-31T22:23:11.153Z,4.10
2017-12-31T22:24:11.071Z,5.50
2017-12-31T22:26:03.718Z,4.40
2017-12-31T22:27:04.643Z,3.50
2017-12-31T22:28:55.629Z,3.30
2017-12-31T22:29:56.542Z,3.20
2017-12-31T22:31:50.834Z,3.40
2017-12-31T22:32:51.760Z,3.00
2017-12-31T22:34:45.195Z,4.80
2017-12-31T22:35:45.311Z,5.00
2017-12-31T22:37:38.031Z,5.50
2017-12-31T22:38:38.875Z,5.50
2017-12-31T22:40:32.436Z,5.40
2017-12-31T22:41:32.438Z,5.90
2017-12-31T22:43:26.631Z,4.60
2017-12-31T22:44:26.007Z,4.20
2017-12-31T22:46:19.548Z,4.30
2017-12-31T22:47:19.563Z,4.30
2017-12-31T22:49:12.235Z,4.20
2017-12-31T22:50:13.113Z,4.00
2017-12-31T22:52:05.634Z,5.60
2017-12-31T22:53:06.737Z,4.90
2017-12-31T22:55:03.581Z,7.90
2017-12-31T22:56:00.237Z,5.90
2017-12-31T22:57:53.020Z,8.50
2017-12-31T22:58:52.541Z,9.10
2017-12-31T23:00:47.367Z,8.70
2017-12-31T23:01:47.424Z,5.20
2017-12-31T23:03:41.501Z,13.50
2017-12-31T23:04:39.992Z,14.30
2017-12-31T23:06:33.418Z,16.70
2017-12-31T23:07:34.518Z,27.70
2017-12-31T23:09:26.974Z,12.70
2017-12-31T23:10:28.028Z,12.20
2017-12-31T23:12:21.586Z,10.20
2017-12-31T23:14:34.068Z,14.80
2017-12-31T23:15:35.003Z,17.90
2017-12-31T23:17:28.558Z,23.80
2017-12-31T23:18:26.886Z,27.10
2017-12-31T23:20:21.570Z,33.60
2017-12-31T23:21:19.764Z,38.90
2017-12-31T23:23:15.893Z,49.60
2017-12-31T23:24:15.668Z,52.60
2017-12-31T23:26:06.961Z,53.30
2017-12-31T23:27:09.266Z,246.40
2017-12-31T23:29:02.807Z,64.40
2017-12-31T23:30:01.250Z,64.20
2017-12-31T23:31:55.522Z,69.10
2017-12-31T23:32:56.760Z,68.10
2017-12-31T23:34:49.946Z,68.10
2017-12-31T23:35:48.289Z,73.30
2017-12-31T23:37:42.716Z,64.20
2017-12-31T23:38:41.623Z,75.50
2017-12-31T23:40:36.140Z,73.50
2017-12-31T23:42:50.431Z,93.10
2017-12-31T23:43:50.512Z,66.50
2017-12-31T23:45:43.097Z,65.00
2017-12-31T23:46:44.025Z,60.40
2017-12-31T23:48:36.699Z,64.20
2017-12-31T23:49:37.614Z,59.10
2017-12-31T23:51:30.171Z,58.60
2017-12-31T23:52:31.192Z,57.40
2017-12-31T23:54:24.693Z,56.40
2017-12-31T23:55:24.684Z,52.40
2017-12-31T23:57:18.947Z,49.80
2017-12-31T23:58:18.284Z,46.90
